Time;durP1;ratioP1;P1;durP2;ratioP2;P2;SDS_P1;SDS_P2;PMS_P1;PMS_P2;Temp;Humidity;BMP_temperature;BMP_pressure;BME280_temperature;BME280_humidity;BME280_pressure;Samples;Min_cycle;Max_cycle;Signal;HPM_P1;HPM_P2
2022/03/20 00:00:15;;;;;;;20.05;10.82;;;;;;;;;;5115920;28;20028;-57
2022/03/20 00:02:42;;;;;;;21.30;10.80;;;;;;;;;;5115776;28;20386;-48
2022/03/20 00:05:08;;;;;;;20.83;11.07;;;;;;;;;;5115945;28;20030;-49
2022/03/20 00:07:35;;;;;;;20.67;10.57;;;;;;;;;;5115880;28;20364;-50
2022/03/20 00:10:02;;;;;;;19.92;10.57;;;;;;;;;;5115405;28;20122;-51
2022/03/20 00:12:29;;;;;;;20.45;11.38;;;;;;;;;;5115671;28;20486;-51
2022/03/20 00:14:55;;;;;;;30.00;14.20;;;;;;;;;;5115729;28;20027;-49
2022/03/20 00:17:21;;;;;;;23.27;11.65;;;;;;;;;;5111355;28;20503;-50
2022/03/20 00:19:48;;;;;;;28.33;12.40;;;;;;;;;;5106989;28;20020;-51
2022/03/20 00:22:15;;;;;;;22.70;10.93;;;;;;;;;;5115569;28;20030;-50
2022/03/20 00:24:41;;;;;;;25.30;12.02;;;;;;;;;;5115259;28;20016;-50
2022/03/20 00:27:08;;;;;;;31.45;14.95;;;;;;;;;;5115047;28;20462;-50
2022/03/20 00:29:34;;;;;;;23.88;11.55;;;;;;;;;;5115293;28;20034;-51
2022/03/20 00:32:00;;;;;;;23.83;10.95;;;;;;;;;;5115262;28;20102;-51
2022/03/20 00:34:26;;;;;;;23.88;12.02;;;;;;;;;;5115294;28;20019;-51
2022/03/20 00:36:52;;;;;;;23.90;12.07;;;;;;;;;;5115246;28;20102;-50
2022/03/20 00:39:18;;;;;;;20.92;11.88;;;;;;;;;;5115324;28;20102;-51
2022/03/20 00:41:45;;;;;;;20.73;11.32;;;;;;;;;;5115006;28;20024;-51
2022/03/20 00:44:11;;;;;;;33.05;11.93;;;;;;;;;;5115287;28;20034;-50
2022/03/20 00:46:37;;;;;;;26.60;12.38;;;;;;;;;;5114838;28;20463;-50
2022/03/20 00:49:03;;;;;;;29.15;13.00;;;;;;;;;;5114779;28;20059;-51
2022/03/20 00:51:29;;;;;;;28.42;13.63;;;;;;;;;;5114862;28;20036;-51
2022/03/20 00:53:55;;;;;;;25.50;11.15;;;;;;;;;;5114782;28;20015;-53
2022/03/20 00:56:21;;;;;;;22.25;11.60;;;;;;;;;;5115115;28;20024;-51
2022/03/20 00:58:48;;;;;;;21.20;11.50;;;;;;;;;;5114994;28;20084;-53
2022/03/20 01:01:14;;;;;;;23.42;10.50;;;;;;;;;;5114786;28;20471;-50
2022/03/20 01:03:41;;;;;;;18.88;10.52;;;;;;;;;;5114695;28;20028;-52
2022/03/20 01:06:07;;;;;;;19.58;10.02;;;;;;;;;;5114829;28;20539;-50
2022/03/20 01:08:34;;;;;;;17.33;10.10;;;;;;;;;;5114824;28;20015;-50
2022/03/20 01:11:01;;;;;;;23.60;10.65;;;;;;;;;;5114562;28;20031;-51
2022/03/20 01:13:28;;;;;;;19.83;10.25;;;;;;;;;;5114502;28;20494;-51
2022/03/20 01:15:55;;;;;;;17.27;9.50;;;;;;;;;;5114619;28;20058;-51
2022/03/20 01:18:21;;;;;;;18.67;9.32;;;;;;;;;;5114128;28;20554;-50
2022/03/20 01:20:47;;;;;;;18.17;9.32;;;;;;;;;;5114442;28;20036;-50
2022/03/20 01:23:13;;;;;;;18.85;9.45;;;;;;;;;;5113713;28;20471;-51
2022/03/20 01:25:40;;;;;;;18.42;9.93;;;;;;;;;;5114404;28;20035;-50
2022/03/20 01:28:06;;;;;;;24.38;9.98;;;;;;;;;;5114167;28;20110;-50
2022/03/20 01:30:32;;;;;;;24.38;12.25;;;;;;;;;;5114695;28;20374;-52
2022/03/20 01:32:58;;;;;;;19.75;10.45;;;;;;;;;;5113906;28;20024;-51
2022/03/20 01:35:24;;;;;;;20.08;9.60;;;;;;;;;;5114382;28;20364;-52
2022/03/20 01:37:51;;;;;;;21.05;9.88;;;;;;;;;;5114368;28;20046;-52
2022/03/20 01:40:17;;;;;;;16.85;9.45;;;;;;;;;;5114059;28;20022;-51
2022/03/20 01:42:43;;;;;;;21.02;9.18;;;;;;;;;;5114301;28;20040;-51
2022/03/20 01:45:16;;;;;;;16.50;9.30;;;;;;;;;;5114188;28;20026;-52
2022/03/20 01:47:42;;;;;;;21.17;10.07;;;;;;;;;;5113618;28;20118;-51
2022/03/20 01:50:08;;;;;;;14.45;8.40;;;;;;;;;;5113878;28;20032;-50
2022/03/20 01:52:35;;;;;;;20.15;9.90;;;;;;;;;;5113937;28;20019;-52
2022/03/20 01:55:02;;;;;;;18.45;9.80;;;;;;;;;;5113968;28;20054;-51
2022/03/20 01:57:30;;;;;;;20.50;10.85;;;;;;;;;;5113885;28;20027;-51
2022/03/20 01:59:56;;;;;;;17.40;9.63;;;;;;;;;;5113871;28;20020;-52
2022/03/20 02:02:22;;;;;;;24.55;10.80;;;;;;;;;;5113706;28;20019;-51
2022/03/20 02:04:48;;;;;;;22.58;10.82;;;;;;;;;;5113790;28;20027;-50
2022/03/20 02:07:15;;;;;;;20.90;10.00;;;;;;;;;;5113765;28;20152;-50
2022/03/20 02:09:42;;;;;;;23.33;9.88;;;;;;;;;;5113627;28;20016;-50
2022/03/20 02:12:10;;;;;;;21.48;10.75;;;;;;;;;;5113804;28;20106;-53
2022/03/20 02:14:36;;;;;;;21.13;10.80;;;;;;;;;;5113789;28;20019;-51
2022/03/20 02:17:03;;;;;;;19.55;10.43;;;;;;;;;;5113420;28;20028;-52
2022/03/20 02:19:29;;;;;;;22.20;10.13;;;;;;;;;;5113663;28;20544;-50
2022/03/20 02:21:55;;;;;;;17.85;9.52;;;;;;;;;;5095361;28;20050;-52
2022/03/20 02:24:41;;;;;;;16.73;9.85;;;;;;;;;;5113625;28;20023;-51
2022/03/20 02:27:21;;;;;;;18.92;9.75;;;;;;;;;;5113598;28;20052;-50
2022/03/20 02:29:49;;;;;;;24.33;9.93;;;;;;;;;;5113277;28;20108;-50
2022/03/20 02:32:18;;;;;;;21.48;11.55;;;;;;;;;;5113536;28;20035;-52
2022/03/20 02:34:48;;;;;;;23.70;11.20;;;;;;;;;;5117452;28;20036;-49
2022/03/20 02:37:15;;;;;;;22.17;11.52;;;;;;;;;;5117433;28;20031;-50
2022/03/20 02:39:41;;;;;;;22.85;11.10;;;;;;;;;;5117510;28;20038;-50
2022/03/20 02:42:08;;;;;;;23.83;12.57;;;;;;;;;;5117394;28;20023;-48
2022/03/20 02:44:56;;;;;;;29.20;11.88;;;;;;;;;;5117236;28;20016;-49
2022/03/20 02:47:26;;;;;;;26.13;12.45;;;;;;;;;;5117126;28;20060;-49
2022/03/20 02:49:56;;;;;;;28.02;12.95;;;;;;;;;;5117454;28;20502;-50
2022/03/20 02:52:28;;;;;;;25.73;12.63;;;;;;;;;;5117229;28;20027;-49
2022/03/20 02:54:54;;;;;;;25.95;12.10;;;;;;;;;;5117155;28;20039;-50
2022/03/20 02:57:20;;;;;;;27.08;11.75;;;;;;;;;;5117049;28;20027;-50
2022/03/20 02:59:47;;;;;;;27.13;12.68;;;;;;;;;;5117483;28;20471;-49
2022/03/20 03:02:13;;;;;;;27.02;12.88;;;;;;;;;;5117176;28;20386;-50
2022/03/20 03:04:42;;;;;;;19.73;11.68;;;;;;;;;;5116973;28;20027;-50
2022/03/20 03:07:09;;;;;;;25.48;11.98;;;;;;;;;;5117006;28;20027;-50
2022/03/20 03:12:21;;;;;;;23.52;10.45;;;;;;;;;;5116849;28;20111;-50
2022/03/20 03:17:32;;;;;;;23.70;11.43;;;;;;;;;;5116864;28;20123;-50
2022/03/20 03:19:58;;;;;;;22.13;11.80;;;;;;;;;;5116787;28;20031;-49
2022/03/20 03:22:27;;;;;;;24.85;12.13;;;;;;;;;;5116699;28;20024;-51
2022/03/20 03:24:54;;;;;;;21.98;12.20;;;;;;;;;;5116603;28;20023;-50
2022/03/20 03:27:20;;;;;;;24.20;12.48;;;;;;;;;;5116469;28;20073;-52
2022/03/20 03:29:46;;;;;;;23.58;11.10;;;;;;;;;;5098124;28;20089;-51
2022/03/20 03:32:13;;;;;;;23.65;11.18;;;;;;;;;;5116983;28;20106;-51
2022/03/20 03:37:24;;;;;;;22.77;11.32;;;;;;;;;;5116610;28;20088;-50
2022/03/20 03:39:50;;;;;;;26.08;12.02;;;;;;;;;;5116609;28;20030;-51
2022/03/20 03:42:16;;;;;;;24.73;12.65;;;;;;;;;;5116633;28;20525;-50
2022/03/20 03:44:42;;;;;;;27.58;12.95;;;;;;;;;;5115745;28;20435;-50
2022/03/20 03:47:09;;;;;;;28.13;13.75;;;;;;;;;;5115973;28;20019;-51
2022/03/20 03:49:35;;;;;;;25.50;12.20;;;;;;;;;;5115808;28;20105;-50
2022/03/20 03:52:02;;;;;;;24.92;12.77;;;;;;;;;;5116332;28;20110;-50
2022/03/20 03:54:28;;;;;;;27.27;13.25;;;;;;;;;;5116152;28;20020;-50
2022/03/20 03:56:54;;;;;;;23.48;12.57;;;;;;;;;;5116011;28;20023;-51
2022/03/20 03:59:22;;;;;;;29.50;13.80;;;;;;;;;;5115982;28;20023;-51
2022/03/20 04:01:49;;;;;;;28.38;13.82;;;;;;;;;;5116002;28;20023;-50
2022/03/20 04:04:15;;;;;;;32.15;14.30;;;;;;;;;;5115732;28;20031;-50
2022/03/20 04:06:41;;;;;;;24.75;12.77;;;;;;;;;;5116220;28;20024;-51
2022/03/20 04:09:07;;;;;;;30.48;14.75;;;;;;;;;;5115947;28;20530;-50
2022/03/20 04:11:33;;;;;;;32.50;14.38;;;;;;;;;;5115719;28;20081;-51
2022/03/20 04:13:59;;;;;;;31.33;14.52;;;;;;;;;;5115751;28;20368;-51
2022/03/20 04:16:26;;;;;;;30.85;13.63;;;;;;;;;;5115480;28;20026;-50
2022/03/20 04:18:52;;;;;;;32.72;13.55;;;;;;;;;;5115551;28;20038;-50
2022/03/20 04:21:18;;;;;;;29.52;13.60;;;;;;;;;;5115551;28;20024;-51
2022/03/20 04:23:49;;;;;;;28.20;12.77;;;;;;;;;;5115765;28;20032;-50
2022/03/20 04:26:22;;;;;;;28.90;13.70;;;;;;;;;;5115457;28;20019;-50
2022/03/20 04:28:48;;;;;;;27.70;13.75;;;;;;;;;;5106970;28;20373;-51
2022/03/20 04:31:15;;;;;;;29.73;14.00;;;;;;;;;;5115302;28;20055;-50
2022/03/20 04:33:45;;;;;;;26.20;13.30;;;;;;;;;;5115160;28;20031;-50
2022/03/20 04:36:11;;;;;;;33.25;13.70;;;;;;;;;;5115382;28;20038;-50
2022/03/20 04:38:38;;;;;;;25.50;12.30;;;;;;;;;;5115836;28;20371;-50
2022/03/20 04:41:04;;;;;;;28.95;12.52;;;;;;;;;;5115018;28;20034;-49
2022/03/20 04:43:30;;;;;;;28.05;14.80;;;;;;;;;;5115172;28;20035;-52
2022/03/20 04:45:56;;;;;;;41.83;19.75;;;;;;;;;;5115051;28;20073;-51
2022/03/20 04:59:21;;;;;;;30.70;14.55;;;;;;;;;;5115131;28;20149;-50
2022/03/20 05:01:48;;;;;;;34.38;14.90;;;;;;;;;;5114825;28;20023;-50
2022/03/20 05:04:14;;;;;;;38.92;17.23;;;;;;;;;;5114476;28;20034;-49
2022/03/20 05:06:43;;;;;;;28.52;13.95;;;;;;;;;;5114923;28;20391;-49
2022/03/20 05:14:38;;;;;;;34.65;15.38;;;;;;;;;;5114928;28;20141;-52
2022/03/20 05:17:08;;;;;;;27.50;13.88;;;;;;;;;;5114571;28;20357;-51
2022/03/20 05:19:35;;;;;;;28.38;13.50;;;;;;;;;;5114315;28;20034;-49
2022/03/20 05:22:01;;;;;;;25.35;12.65;;;;;;;;;;5114260;28;20034;-49
2022/03/20 05:24:27;;;;;;;28.58;12.45;;;;;;;;;;5114306;28;20077;-49
2022/03/20 05:26:53;;;;;;;27.63;12.30;;;;;;;;;;5114466;28;20055;-49
2022/03/20 05:29:19;;;;;;;26.25;13.73;;;;;;;;;;5114493;28;20081;-50
2022/03/20 05:31:46;;;;;;;28.83;13.80;;;;;;;;;;5114245;28;20031;-50
2022/03/20 05:34:12;;;;;;;25.60;13.85;;;;;;;;;;5114185;28;20019;-49
2022/03/20 05:36:39;;;;;;;26.20;12.82;;;;;;;;;;5114138;28;20027;-49
2022/03/20 05:39:05;;;;;;;29.83;13.85;;;;;;;;;;5114492;28;20024;-52
2022/03/20 05:41:46;;;;;;;29.23;13.65;;;;;;;;;;5114345;28;20024;-50
2022/03/20 05:44:18;;;;;;;23.38;12.25;;;;;;;;;;5114110;28;20482;-52
2022/03/20 05:46:51;;;;;;;26.35;12.73;;;;;;;;;;5114227;28;20122;-53
2022/03/20 05:49:20;;;;;;;20.75;11.43;;;;;;;;;;5113810;28;20047;-50
2022/03/20 05:51:49;;;;;;;25.85;12.18;;;;;;;;;;5114233;28;20042;-49
2022/03/20 05:54:16;;;;;;;19.08;10.40;;;;;;;;;;5114064;28;20040;-50
2022/03/20 05:59:27;;;;;;;19.38;9.77;;;;;;;;;;5114226;28;20042;-49
2022/03/20 06:01:53;;;;;;;14.98;8.07;;;;;;;;;;5114072;28;20375;-49
2022/03/20 06:04:20;;;;;;;20.60;11.10;;;;;;;;;;5114014;28;20019;-50
2022/03/20 06:06:48;;;;;;;20.70;11.30;;;;;;;;;;5114225;28;20425;-48
2022/03/20 06:09:15;;;;;;;15.82;11.02;;;;;;;;;;5113374;28;20016;-48
2022/03/20 06:11:41;;;;;;;13.07;7.38;;;;;;;;;;5113683;28;20368;-49
2022/03/20 06:14:08;;;;;;;12.40;7.22;;;;;;;;;;5114240;28;20051;-49
2022/03/20 06:16:35;;;;;;;19.50;11.70;;;;;;;;;;5113503;28;20022;-50
2022/03/20 06:19:01;;;;;;;17.92;12.38;;;;;;;;;;5113603;28;20031;-51
2022/03/20 06:21:28;;;;;;;15.35;7.97;;;;;;;;;;5113626;28;20022;-51
2022/03/20 06:23:54;;;;;;;18.15;9.98;;;;;;;;;;5113571;28;20024;-51
2022/03/20 06:26:21;;;;;;;13.43;7.53;;;;;;;;;;5113552;28;20027;-49
2022/03/20 06:28:48;;;;;;;21.30;17.83;;;;;;;;;;5114036;28;20047;-56
2022/03/20 06:31:15;;;;;;;13.88;8.57;;;;;;;;;;5113383;28;20510;-51
2022/03/20 06:33:43;;;;;;;13.75;6.57;;;;;;;;;;5113545;28;20031;-50
2022/03/20 06:36:12;;;;;;;17.13;14.75;;;;;;;;;;5113419;28;20246;-50
2022/03/20 06:38:38;;;;;;;11.10;6.28;;;;;;;;;;5095259;28;20048;-50
2022/03/20 06:41:06;;;;;;;9.77;6.05;;;;;;;;;;5113334;28;20433;-50
2022/03/20 06:43:35;;;;;;;12.60;5.90;;;;;;;;;;5113409;28;20027;-50
2022/03/20 06:46:02;;;;;;;15.48;6.68;;;;;;;;;;5094767;28;20035;-50
2022/03/20 06:48:28;;;;;;;9.93;4.75;;;;;;;;;;5113283;28;20368;-50
2022/03/20 06:50:55;;;;;;;13.13;9.40;;;;;;;;;;5113250;28;20043;-52
2022/03/20 06:53:21;;;;;;;11.32;6.30;;;;;;;;;;5113370;28;20023;-52
2022/03/20 06:55:48;;;;;;;14.45;7.03;;;;;;;;;;5113509;28;20034;-50
2022/03/20 06:58:17;;;;;;;9.70;5.70;;;;;;;;;;5113345;28;20102;-50
2022/03/20 07:00:44;;;;;;;10.80;4.57;;;;;;;;;;5113141;28;20028;-50
2022/03/20 07:03:11;;;;;;;7.90;5.00;;;;;;;;;;5113360;28;20062;-51
2022/03/20 07:05:37;;;;;;;8.25;5.70;;;;;;;;;;5113266;28;20066;-49
2022/03/20 07:08:04;;;;;;;9.43;6.22;;;;;;;;;;5113258;28;20383;-50
2022/03/20 07:10:30;;;;;;;16.48;14.80;;;;;;;;;;5109640;28;20024;-50
2022/03/20 07:15:45;;;;;;;11.63;6.10;;;;;;;;;;5106159;28;20379;-50
2022/03/20 07:18:13;;;;;;;11.43;5.35;;;;;;;;;;5113036;28;20031;-51
2022/03/20 07:20:39;;;;;;;13.35;9.43;;;;;;;;;;5114981;28;20028;-50
2022/03/20 07:23:09;;;;;;;24.65;22.27;;;;;;;;;;5116997;28;20054;-50
2022/03/20 07:31:07;;;;;;;13.13;5.82;;;;;;;;;;5114439;27;20051;-48
2022/03/20 07:33:34;;;;;;;16.45;14.95;;;;;;;;;;5120481;27;20022;-47
2022/03/20 07:36:04;;;;;;;9.23;5.40;;;;;;;;;;5123357;27;20096;-48
2022/03/20 07:38:30;;;;;;;10.10;5.10;;;;;;;;;;5127265;27;20110;-49
2022/03/20 07:40:56;;;;;;;8.90;4.55;;;;;;;;;;5125828;27;20024;-51
2022/03/20 07:43:22;;;;;;;7.35;4.22;;;;;;;;;;5119269;27;20526;-49
2022/03/20 07:45:50;;;;;;;6.78;4.30;;;;;;;;;;5126139;27;20019;-49
2022/03/20 07:48:16;;;;;;;9.65;4.95;;;;;;;;;;5125017;27;20091;-50
2022/03/20 07:50:42;;;;;;;8.35;4.88;;;;;;;;;;5117632;27;20069;-49
2022/03/20 07:53:08;;;;;;;10.68;5.80;;;;;;;;;;5107173;28;20048;-49
2022/03/20 07:55:34;;;;;;;11.57;5.45;;;;;;;;;;5105672;28;20024;-51
2022/03/20 07:58:01;;;;;;;11.57;5.40;;;;;;;;;;5111336;28;20051;-51
2022/03/20 08:00:27;;;;;;;7.88;4.80;;;;;;;;;;5111603;28;20027;-50
2022/03/20 08:02:53;;;;;;;9.15;4.00;;;;;;;;;;5109197;28;20030;-50
2022/03/20 08:05:20;;;;;;;7.78;4.32;;;;;;;;;;5110408;28;20023;-51
2022/03/20 08:07:46;;;;;;;8.30;4.78;;;;;;;;;;5110946;28;20016;-51
2022/03/20 08:10:13;;;;;;;7.15;4.10;;;;;;;;;;5094991;28;20129;-50
2022/03/20 08:12:40;;;;;;;14.10;7.15;;;;;;;;;;5108228;28;20031;-49
2022/03/20 08:15:06;;;;;;;12.75;6.10;;;;;;;;;;5105260;28;20070;-50
2022/03/20 08:17:41;;;;;;;10.68;5.57;;;;;;;;;;5110703;28;20414;-49
2022/03/20 08:20:08;;;;;;;10.32;5.07;;;;;;;;;;5106961;28;20028;-50
2022/03/20 08:22:34;;;;;;;10.35;5.68;;;;;;;;;;5105565;28;20092;-50
2022/03/20 08:25:00;;;;;;;11.32;5.60;;;;;;;;;;5107641;28;20047;-49
2022/03/20 08:27:27;;;;;;;10.35;5.75;;;;;;;;;;5120292;27;20027;-50
2022/03/20 08:29:53;;;;;;;9.88;6.00;;;;;;;;;;5120447;27;20023;-49
2022/03/20 08:32:19;;;;;;;10.13;5.47;;;;;;;;;;5117508;27;20365;-51
2022/03/20 08:34:45;;;;;;;7.20;4.93;;;;;;;;;;5115264;28;20020;-50
2022/03/20 08:37:13;;;;;;;7.30;4.68;;;;;;;;;;5115364;28;20471;-51
2022/03/20 08:39:39;;;;;;;7.35;4.78;;;;;;;;;;5115703;28;20038;-50
2022/03/20 08:42:07;;;;;;;11.10;4.97;;;;;;;;;;5115548;28;20467;-50
2022/03/20 08:44:36;;;;;;;11.50;4.63;;;;;;;;;;5105708;28;20016;-51
2022/03/20 08:47:02;;;;;;;11.13;5.30;;;;;;;;;;5101955;28;20475;-51
2022/03/20 08:49:28;;;;;;;8.13;4.60;;;;;;;;;;5092397;28;20047;-50
2022/03/20 08:51:54;;;;;;;10.35;4.43;;;;;;;;;;5105632;28;20038;-50
2022/03/20 08:54:20;;;;;;;8.85;4.72;;;;;;;;;;5103522;28;20023;-51
2022/03/20 08:56:46;;;;;;;11.82;5.40;;;;;;;;;;5105305;28;20028;-51
2022/03/20 08:59:12;;;;;;;6.60;4.38;;;;;;;;;;5108328;28;20464;-49
2022/03/20 09:01:39;;;;;;;8.20;4.38;;;;;;;;;;5111199;27;20081;-48
2022/03/20 09:04:06;;;;;;;13.80;5.78;;;;;;;;;;5120284;27;20103;-48
2022/03/20 09:06:32;;;;;;;8.73;4.68;;;;;;;;;;5119903;27;20375;-52
2022/03/20 09:08:58;;;;;;;7.47;4.53;;;;;;;;;;5124532;27;20478;-47
2022/03/20 09:11:24;;;;;;;11.30;5.13;;;;;;;;;;5118303;27;20031;-49
2022/03/20 09:13:50;;;;;;;8.35;4.78;;;;;;;;;;5123239;27;20020;-48
2022/03/20 09:19:07;;;;;;;8.60;4.75;;;;;;;;;;5111665;27;20073;-51
2022/03/20 09:21:37;;;;;;;8.43;4.60;;;;;;;;;;5106389;28;20059;-48
2022/03/20 09:24:03;;;;;;;11.10;4.65;;;;;;;;;;5104252;28;20173;-50
2022/03/20 09:26:30;;;;;;;9.73;5.30;;;;;;;;;;5107758;28;20031;-49
2022/03/20 09:28:56;;;;;;;7.38;4.32;;;;;;;;;;5108699;28;20023;-49
2022/03/20 09:31:26;;;;;;;9.80;5.75;;;;;;;;;;5108802;28;20112;-51
2022/03/20 09:33:52;;;;;;;11.13;5.80;;;;;;;;;;5109518;28;20024;-49
2022/03/20 09:36:19;;;;;;;11.43;5.80;;;;;;;;;;5109462;28;20421;-49
2022/03/20 09:38:45;;;;;;;8.77;5.43;;;;;;;;;;5107297;28;20050;-49
2022/03/20 09:41:14;;;;;;;21.83;11.20;;;;;;;;;;5091900;28;20462;-48
2022/03/20 09:43:41;;;;;;;20.10;9.18;;;;;;;;;;5109708;28;20032;-50
2022/03/20 09:46:07;;;;;;;10.13;5.63;;;;;;;;;;5107659;28;20536;-52
2022/03/20 09:48:34;;;;;;;11.07;5.35;;;;;;;;;;5107307;28;20036;-51
2022/03/20 09:51:01;;;;;;;7.28;3.97;;;;;;;;;;5105463;28;20044;-50
2022/03/20 09:53:27;;;;;;;6.70;4.03;;;;;;;;;;5106730;28;20027;-49
2022/03/20 09:55:55;;;;;;;8.68;4.90;;;;;;;;;;5112024;28;20070;-51
2022/03/20 09:58:25;;;;;;;7.05;3.78;;;;;;;;;;5109724;28;20022;-46
2022/03/20 10:00:52;;;;;;;10.10;5.10;;;;;;;;;;5109560;28;20046;-58
2022/03/20 10:03:19;;;;;;;9.48;4.32;;;;;;;;;;5108797;28;20383;-55
2022/03/20 10:06:01;;;;;;;7.68;4.35;;;;;;;;;;5111687;28;20024;-56
2022/03/20 10:08:28;;;;;;;9.15;5.10;;;;;;;;;;5112768;28;20026;-56
2022/03/20 10:11:11;;;;;;;9.68;4.72;;;;;;;;;;5109011;28;20403;-48
2022/03/20 10:13:37;;;;;;;6.50;4.20;;;;;;;;;;5113341;28;20059;-55
2022/03/20 10:16:16;;;;;;;7.47;4.35;;;;;;;;;;5113599;28;20016;-58
2022/03/20 10:18:42;;;;;;;7.55;3.95;;;;;;;;;;5113843;28;20049;-58
2022/03/20 10:21:09;;;;;;;6.65;4.18;;;;;;;;;;5113778;28;20031;-59
2022/03/20 10:23:36;;;;;;;6.93;4.05;;;;;;;;;;5113507;28;20024;-51
2022/03/20 10:26:06;;;;;;;8.30;4.50;;;;;;;;;;5113813;28;20058;-52
2022/03/20 10:28:34;;;;;;;6.15;3.55;;;;;;;;;;5113505;28;20019;-54
2022/03/20 10:31:01;;;;;;;9.35;3.92;;;;;;;;;;5113297;28;20088;-51
2022/03/20 10:33:27;;;;;;;9.18;4.88;;;;;;;;;;5108867;28;20027;-57
2022/03/20 10:36:10;;;;;;;11.13;5.13;;;;;;;;;;5108646;28;20024;-53
2022/03/20 10:38:36;;;;;;;10.63;5.20;;;;;;;;;;5108330;28;20482;-56
2022/03/20 10:41:15;;;;;;;12.38;5.45;;;;;;;;;;5106650;28;20044;-56
2022/03/20 10:43:42;;;;;;;7.60;4.60;;;;;;;;;;5103962;28;20024;-57
2022/03/20 10:46:08;;;;;;;9.40;4.55;;;;;;;;;;5106543;28;20487;-55
2022/03/20 10:48:38;;;;;;;8.23;4.43;;;;;;;;;;5104581;28;20480;-57
2022/03/20 10:51:07;;;;;;;12.05;5.90;;;;;;;;;;5091549;28;20036;-55
2022/03/20 10:53:33;;;;;;;8.73;4.78;;;;;;;;;;5091992;28;20012;-58
2022/03/20 10:56:07;;;;;;;10.43;4.78;;;;;;;;;;5092891;28;20089;-57
2022/03/20 10:58:36;;;;;;;9.73;4.85;;;;;;;;;;5096061;28;20020;-54
2022/03/20 11:01:02;;;;;;;9.15;4.78;;;;;;;;;;5096476;28;20101;-56
2022/03/20 11:03:29;;;;;;;9.40;5.03;;;;;;;;;;5096299;28;20016;-58
2022/03/20 11:05:57;;;;;;;9.60;5.60;;;;;;;;;;5096112;28;20024;-56
2022/03/20 11:08:25;;;;;;;8.52;5.13;;;;;;;;;;5061643;28;21088;-53
2022/03/20 11:10:53;;;;;;;13.52;5.35;;;;;;;;;;5054692;28;20319;-54
2022/03/20 11:13:20;;;;;;;8.65;5.15;;;;;;;;;;5056984;28;20028;-51
2022/03/20 11:15:49;;;;;;;10.45;5.22;;;;;;;;;;5060597;28;20028;-55
2022/03/20 11:18:15;;;;;;;23.45;11.23;;;;;;;;;;5060601;28;20475;-55
2022/03/20 11:20:45;;;;;;;11.32;6.60;;;;;;;;;;5058182;28;20028;-54
2022/03/20 11:23:15;;;;;;;14.52;7.13;;;;;;;;;;5052813;28;20081;-52
2022/03/20 11:25:43;;;;;;;10.80;5.40;;;;;;;;;;5057852;28;20035;-53
2022/03/20 11:28:11;;;;;;;10.13;5.68;;;;;;;;;;5059513;28;20424;-52
2022/03/20 11:30:38;;;;;;;8.68;6.00;;;;;;;;;;5051755;28;20024;-52
2022/03/20 11:33:04;;;;;;;12.02;6.45;;;;;;;;;;5059973;28;20075;-52
2022/03/20 11:35:32;;;;;;;10.15;5.50;;;;;;;;;;5050156;28;20100;-49
2022/03/20 11:38:12;;;;;;;9.40;5.50;;;;;;;;;;5059130;28;20048;-51
2022/03/20 11:40:41;;;;;;;20.77;12.40;;;;;;;;;;5051824;28;20019;-55
2022/03/20 11:43:22;;;;;;;17.73;10.95;;;;;;;;;;5060329;28;20033;-53
2022/03/20 11:46:07;;;;;;;18.23;14.07;;;;;;;;;;5060301;28;20036;-54
2022/03/20 11:48:33;;;;;;;16.13;9.40;;;;;;;;;;5064499;28;20430;-56
2022/03/20 11:50:59;;;;;;;16.85;9.93;;;;;;;;;;5071065;28;20039;-53
2022/03/20 11:53:28;;;;;;;10.77;5.93;;;;;;;;;;5071182;28;20024;-52
2022/03/20 11:55:54;;;;;;;14.95;7.00;;;;;;;;;;5071116;28;20035;-53
2022/03/20 11:58:21;;;;;;;21.20;10.90;;;;;;;;;;5070530;28;20123;-50
2022/03/20 12:01:02;;;;;;;142.10;60.05;;;;;;;;;;5071201;28;20023;-52
2022/03/20 12:03:49;;;;;;;70.40;32.60;;;;;;;;;;5070870;28;20031;-54
2022/03/20 12:06:27;;;;;;;34.25;14.77;;;;;;;;;;5069830;28;20027;-51
2022/03/20 12:09:08;;;;;;;27.08;11.48;;;;;;;;;;5070635;28;20027;-52
2022/03/20 12:11:40;;;;;;;27.45;11.85;;;;;;;;;;5069776;28;20476;-50
2022/03/20 12:14:06;;;;;;;26.73;12.98;;;;;;;;;;5070050;28;20028;-52
2022/03/20 12:16:48;;;;;;;32.63;14.75;;;;;;;;;;5070423;28;20024;-47
2022/03/20 12:19:15;;;;;;;13.25;7.38;;;;;;;;;;5068899;28;20036;-51
2022/03/20 12:22:04;;;;;;;26.38;12.30;;;;;;;;;;5069296;28;20054;-52
2022/03/20 12:24:52;;;;;;;17.77;8.52;;;;;;;;;;5026355;28;20033;-51
2022/03/20 12:27:24;;;;;;;29.05;12.23;;;;;;;;;;5026300;28;21099;-48
2022/03/20 12:29:50;;;;;;;;;;;;;;;;;;5026467;28;20029;-49
2022/03/20 12:32:17;;;;;;;13.65;7.75;;;;;;;;;;5026364;28;19960;-49
2022/03/20 12:34:43;;;;;;;16.65;9.02;;;;;;;;;;5025739;28;20354;-46
2022/03/20 12:37:28;;;;;;;22.50;9.50;;;;;;;;;;5026000;28;20404;-47
2022/03/20 12:39:55;;;;;;;15.95;8.18;;;;;;;;;;5011096;28;20028;-47
2022/03/20 12:42:22;;;;;;;15.57;7.13;;;;;;;;;;5026091;28;20433;-50
2022/03/20 12:44:49;;;;;;;13.68;6.72;;;;;;;;;;5025698;28;20481;-49
2022/03/20 12:47:22;;;;;;;10.55;6.25;;;;;;;;;;5025118;28;20185;-50
2022/03/20 12:49:52;;;;;;;14.93;8.30;;;;;;;;;;5045593;28;20061;-48
2022/03/20 12:52:19;;;;;;;10.95;6.93;;;;;;;;;;5045415;28;20036;-49
2022/03/20 12:54:55;;;;;;;13.63;7.43;;;;;;;;;;5045917;28;20470;-48
2022/03/20 12:57:40;;;;;;;14.68;7.47;;;;;;;;;;5045727;28;20023;-47
2022/03/20 13:00:09;;;;;;;11.40;6.60;;;;;;;;;;5045122;28;20442;-48
2022/03/20 13:02:54;;;;;;;13.45;6.70;;;;;;;;;;5083086;28;20647;-47
2022/03/20 13:05:21;;;;;;;12.20;7.20;;;;;;;;;;5086681;28;20078;-48
2022/03/20 13:07:47;;;;;;;12.52;7.50;;;;;;;;;;5087181;28;20073;-52
2022/03/20 13:10:16;;;;;;;13.88;7.82;;;;;;;;;;5086255;28;20019;-49
2022/03/20 13:12:58;;;;;;;9.93;6.07;;;;;;;;;;5086963;28;20023;-48
2022/03/20 13:15:27;;;;;;;16.58;8.70;;;;;;;;;;5086489;28;20742;-53
2022/03/20 13:17:54;;;;;;;16.92;8.63;;;;;;;;;;5085058;28;20027;-49
2022/03/20 13:20:22;;;;;;;9.68;5.93;;;;;;;;;;5086945;28;20114;-48
2022/03/20 13:22:48;;;;;;;30.70;15.40;;;;;;;;;;5087375;28;20424;-48
2022/03/20 13:25:18;;;;;;;12.43;7.68;;;;;;;;;;5086630;28;20034;-52
2022/03/20 13:27:47;;;;;;;12.90;7.75;;;;;;;;;;5086343;28;20058;-48
2022/03/20 13:30:14;;;;;;;21.13;12.50;;;;;;;;;;5086249;28;20086;-48
2022/03/20 13:32:41;;;;;;;18.75;10.63;;;;;;;;;;5085592;28;20031;-48
2022/03/20 13:35:08;;;;;;;13.43;7.43;;;;;;;;;;5085939;28;20450;-49
2022/03/20 13:37:34;;;;;;;20.92;12.15;;;;;;;;;;5086349;28;20023;-50
2022/03/20 13:40:00;;;;;;;11.75;6.90;;;;;;;;;;5086638;28;20028;-47
2022/03/20 13:42:32;;;;;;;16.27;7.95;;;;;;;;;;5086875;28;20028;-51
2022/03/20 13:44:59;;;;;;;9.40;6.20;;;;;;;;;;5087011;28;20051;-48
2022/03/20 13:47:25;;;;;;;9.38;6.20;;;;;;;;;;5086060;28;20024;-49
2022/03/20 13:49:54;;;;;;;12.57;6.55;;;;;;;;;;5085200;28;20039;-47
2022/03/20 13:52:34;;;;;;;10.88;7.30;;;;;;;;;;5083378;27;20372;-50
2022/03/20 13:55:00;;;;;;;15.13;7.77;;;;;;;;;;5084139;27;20016;-50
2022/03/20 13:57:30;;;;;;;14.35;7.68;;;;;;;;;;5084492;27;20036;-46
2022/03/20 14:00:00;;;;;;;16.42;9.93;;;;;;;;;;5085934;27;21141;-47
2022/03/20 14:02:37;;;;;;;11.02;6.80;;;;;;;;;;5084537;28;20793;-47
2022/03/20 14:05:10;;;;;;;21.70;10.43;;;;;;;;;;5084489;28;20111;-50
2022/03/20 14:07:37;;;;;;;9.73;6.10;;;;;;;;;;5084280;28;20530;-49
2022/03/20 14:10:15;;;;;;;11.95;7.38;;;;;;;;;;5083316;27;20902;-46
2022/03/20 14:12:42;;;;;;;12.52;7.30;;;;;;;;;;5079851;28;20038;-48
2022/03/20 14:15:11;;;;;;;14.43;8.60;;;;;;;;;;5086261;28;20104;-46
2022/03/20 14:17:41;;;;;;;13.70;8.23;;;;;;;;;;5080682;28;20032;-48
2022/03/20 14:20:34;;;;;;;13.55;7.80;;;;;;;;;;5087541;28;20032;-48
2022/03/20 14:23:10;;;;;;;13.32;8.05;;;;;;;;;;5082868;28;20150;-48
2022/03/20 14:25:42;;;;;;;10.73;6.68;;;;;;;;;;5083775;28;20020;-47
2022/03/20 14:28:12;;;;;;;16.08;8.23;;;;;;;;;;5084131;28;20019;-46
2022/03/20 14:41:51;;;;;;;16.52;9.80;;;;;;;;;;5090305;27;20049;-49
2022/03/20 14:44:18;;;;;;;12.38;7.07;;;;;;;;;;5090322;27;20096;-48
2022/03/20 14:46:45;;;;;;;16.75;9.57;;;;;;;;;;5080331;27;20027;-50
2022/03/20 14:49:16;;;;;;;13.77;6.38;;;;;;;;;;5077828;27;20048;-50
2022/03/20 14:51:42;;;;;;;15.75;9.20;;;;;;;;;;5070924;28;20027;-48
2022/03/20 14:54:09;;;;;;;17.50;9.05;;;;;;;;;;5071623;28;20152;-49
2022/03/20 14:56:37;;;;;;;15.68;8.70;;;;;;;;;;5072442;28;20023;-49
2022/03/20 14:59:04;;;;;;;13.15;7.93;;;;;;;;;;5071959;28;20113;-51
2022/03/20 15:01:30;;;;;;;12.65;7.07;;;;;;;;;;5071327;28;20372;-49
2022/03/20 15:03:56;;;;;;;17.83;10.18;;;;;;;;;;5069686;28;20024;-49
2022/03/20 15:06:24;;;;;;;14.80;8.15;;;;;;;;;;5069599;28;20031;-47
2022/03/20 15:11:36;;;;;;;15.85;8.73;;;;;;;;;;5072309;28;20104;-48
2022/03/20 15:14:03;;;;;;;44.47;25.00;;;;;;;;;;5070774;28;20028;-47
2022/03/20 15:16:29;;;;;;;12.95;7.63;;;;;;;;;;5070451;28;20229;-44
2022/03/20 15:18:57;;;;;;;26.20;14.52;;;;;;;;;;5061922;28;20029;-44
2022/03/20 15:21:23;;;;;;;18.40;9.80;;;;;;;;;;5070566;28;20039;-44
2022/03/20 15:23:49;;;;;;;26.95;13.85;;;;;;;;;;5071769;28;20991;-47